createdAt,value
2022-09-24T00:01:47.975Z,100326.16
2022-09-24T00:04:15.989Z,100332.38
2022-09-24T00:06:46.960Z,100319.47
2022-09-24T00:09:19.306Z,100274.06
2022-09-24T00:11:47.572Z,100286.19
2022-09-24T00:14:15.820Z,100264.16
2022-09-24T00:16:45.848Z,100216.38
2022-09-24T00:19:14.223Z,100212.78
2022-09-24T00:21:43.017Z,100224.81
2022-09-24T00:24:34.139Z,100238.66
2022-09-24T00:27:03.216Z,100170.66
2022-09-24T00:29:34.354Z,100231.97
2022-09-24T00:32:03.268Z,100210.94
2022-09-24T00:34:31.308Z,100264.63
2022-09-24T00:36:59.503Z,100257.09
2022-09-24T00:39:27.259Z,100268.38
2022-09-24T00:41:54.881Z,100272.38
2022-09-24T00:44:41.164Z,100280.25
2022-09-24T00:47:14.589Z,100299.91
2022-09-24T00:49:42.735Z,100233.28
2022-09-24T00:52:10.825Z,100216.19
2022-09-24T00:54:38.694Z,100242.63
2022-09-24T00:57:07.640Z,100195.03
2022-09-24T00:59:36.298Z,100224.75
2022-09-24T01:02:05.409Z,100177.69
2022-09-24T01:04:33.259Z,100168.44
2022-09-24T01:07:01.604Z,100142.69
2022-09-24T01:09:29.327Z,100152.31
2022-09-24T01:12:12.040Z,100182.81
2022-09-24T01:14:59.980Z,100123.41
2022-09-24T01:17:46.438Z,100185.56
2022-09-24T01:20:45.595Z,100180.09
2022-09-24T01:23:50.828Z,100141.63
2022-09-24T01:26:33.620Z,100144.91
2022-09-24T01:29:23.086Z,100135.50
2022-09-24T01:31:57.508Z,100127.81
2022-09-24T01:34:29.962Z,100071.94
2022-09-24T01:37:00.338Z,100136.59
2022-09-24T01:39:28.934Z,100133.25
2022-09-24T01:41:57.472Z,100127.63
2022-09-24T01:44:25.953Z,100176.22
2022-09-24T01:46:54.560Z,100127.50
2022-09-24T01:49:22.277Z,100122.16
2022-09-24T01:51:58.426Z,100106.22
2022-09-24T01:54:33.388Z,100133.91
2022-09-24T01:57:04.207Z,100118.88
2022-09-24T01:59:45.189Z,100156.78
2022-09-24T02:02:21.135Z,100169.53
2022-09-24T02:04:56.644Z,100143.56
2022-09-24T02:07:35.225Z,100139.78
2022-09-24T02:10:03.008Z,100129.34
2022-09-24T02:12:40.055Z,100094.03
2022-09-24T02:15:22.339Z,100135.09
2022-09-24T02:17:57.383Z,100107.69
2022-09-24T02:20:27.744Z,100114.44
2022-09-24T02:22:57.611Z,100120.28
2022-09-24T02:26:00.143Z,100141.59
2022-09-24T02:28:28.303Z,100121.88
2022-09-24T02:31:27.468Z,100146.75
2022-09-24T02:34:16.636Z,100108.22
2022-09-24T02:36:44.401Z,100117.25
2022-09-24T02:39:12.043Z,100144.22
2022-09-24T02:41:42.754Z,100147.28
2022-09-24T02:44:10.424Z,100168.03
2022-09-24T02:46:39.342Z,100168.50
2022-09-24T02:49:07.125Z,100155.19
2022-09-24T02:51:34.944Z,100122.41
2022-09-24T02:54:03.150Z,100139.13
2022-09-24T02:56:31.079Z,100180.16
2022-09-24T02:58:59.170Z,100150.13
2022-09-24T03:01:26.904Z,100171.66
2022-09-24T03:03:54.649Z,100153.50
2022-09-24T03:06:22.462Z,100200.38
2022-09-24T03:08:50.139Z,100097.81
2022-09-24T03:11:18.820Z,100196.56
2022-09-24T03:13:46.785Z,100219.84
2022-09-24T03:16:14.930Z,100165.84
2022-09-24T03:18:42.533Z,100185.00
2022-09-24T03:21:15.797Z,100211.03
2022-09-24T03:23:43.762Z,100231.63
2022-09-24T03:26:11.685Z,100239.06
2022-09-24T03:28:39.785Z,100237.13
2022-09-24T03:31:09.020Z,100204.19
2022-09-24T03:33:38.161Z,100230.03
2022-09-24T03:36:16.393Z,100224.53
2022-09-24T03:38:48.612Z,100224.88
2022-09-24T03:41:17.383Z,100219.03
2022-09-24T03:43:45.159Z,100228.09
2022-09-24T03:46:13.990Z,100235.19
2022-09-24T03:48:43.939Z,100234.06
2022-09-24T03:51:18.806Z,100164.56
2022-09-24T03:53:48.138Z,100219.53
2022-09-24T03:56:16.165Z,100225.84
2022-09-24T03:58:48.265Z,100164.16
2022-09-24T04:01:20.759Z,100194.03
2022-09-24T04:03:49.745Z,100234.53
2022-09-24T04:06:21.934Z,100179.56
2022-09-24T04:08:51.540Z,100213.44
2022-09-24T04:11:19.358Z,100135.34
2022-09-24T04:13:47.008Z,100182.09
2022-09-24T04:16:14.810Z,100226.63
2022-09-24T04:18:42.417Z,100211.03
2022-09-24T04:21:10.093Z,100190.25
2022-09-24T04:23:37.799Z,100224.53
2022-09-24T04:26:05.464Z,100233.03
2022-09-24T04:28:33.134Z,100192.28
2022-09-24T04:31:00.959Z,100178.44
2022-09-24T04:33:28.722Z,100238.53
2022-09-24T04:35:56.344Z,100211.56
2022-09-24T04:38:24.562Z,100252.25
2022-09-24T04:40:52.397Z,100190.41
2022-09-24T04:43:20.091Z,100211.16
2022-09-24T04:45:47.722Z,100253.00
2022-09-24T04:48:15.333Z,100245.31
2022-09-24T04:50:46.124Z,100131.47
2022-09-24T04:53:14.560Z,100251.66
2022-09-24T04:55:42.321Z,100265.38
2022-09-24T04:58:10.226Z,100201.44
2022-09-24T05:00:37.966Z,100263.78
2022-09-24T05:03:06.114Z,100255.22
2022-09-24T05:05:34.989Z,100204.13
2022-09-24T05:08:03.285Z,100244.44
2022-09-24T05:10:33.357Z,100258.44
2022-09-24T05:13:01.278Z,100253.94
2022-09-24T05:15:29.001Z,100242.75
2022-09-24T05:17:56.834Z,100256.84
2022-09-24T05:20:25.130Z,100247.53
2022-09-24T05:22:52.917Z,100212.50
2022-09-24T05:25:22.423Z,100209.81
2022-09-24T05:27:55.393Z,100268.47
2022-09-24T05:30:25.013Z,100212.88
2022-09-24T05:32:53.148Z,100211.09
2022-09-24T05:35:23.345Z,100269.25
2022-09-24T05:37:53.980Z,100261.81
2022-09-24T05:40:40.935Z,100271.22
2022-09-24T05:43:08.895Z,100263.78
2022-09-24T05:45:36.645Z,100242.41
2022-09-24T05:48:04.736Z,100269.25
2022-09-24T05:50:35.139Z,100234.25
2022-09-24T05:53:04.347Z,100256.75
2022-09-24T05:55:32.861Z,100272.50
2022-09-24T05:58:08.202Z,100226.41
2022-09-24T06:00:37.331Z,100290.91
2022-09-24T06:03:15.815Z,100275.56
2022-09-24T06:05:46.416Z,100240.88
2022-09-24T06:08:15.484Z,100276.13
2022-09-24T06:10:45.578Z,100199.06
2022-09-24T06:13:14.374Z,100186.31
2022-09-24T06:15:42.358Z,100234.06
2022-09-24T06:18:11.345Z,100203.38
2022-09-24T06:20:39.053Z,100279.94
2022-09-24T06:23:06.755Z,100279.97
2022-09-24T06:25:34.837Z,100240.81
2022-09-24T06:28:04.779Z,100298.31
2022-09-24T06:30:41.460Z,100286.53
2022-09-24T06:33:11.769Z,100279.44
2022-09-24T06:35:42.244Z,100266.59
2022-09-24T06:38:15.716Z,100274.75
2022-09-24T06:40:50.862Z,100275.44
2022-09-24T06:43:19.031Z,100251.72
2022-09-24T06:45:46.783Z,100214.44
2022-09-24T06:48:15.003Z,100268.28
2022-09-24T06:50:45.491Z,100274.91
2022-09-24T06:53:13.149Z,100248.38
2022-09-24T06:55:40.918Z,100278.13
2022-09-24T06:58:11.493Z,100285.22
2022-09-24T07:00:39.268Z,100292.97
2022-09-24T07:03:08.198Z,100237.38
2022-09-24T07:05:40.961Z,100288.28
2022-09-24T07:08:11.142Z,100298.47
2022-09-24T07:10:43.055Z,100297.66
2022-09-24T07:13:12.728Z,100301.63
2022-09-24T07:15:41.171Z,100256.31
2022-09-24T07:18:09.604Z,100289.97
2022-09-24T07:20:37.188Z,100187.97
2022-09-24T07:23:09.780Z,100292.81
2022-09-24T07:25:39.207Z,100289.88
2022-09-24T07:28:12.402Z,100297.91
2022-09-24T07:30:40.831Z,100296.34
2022-09-24T07:33:09.282Z,100305.28
2022-09-24T07:35:40.318Z,100268.41
2022-09-24T07:38:14.398Z,100292.22
2022-09-24T07:40:42.640Z,100269.38
2022-09-24T07:43:14.287Z,100297.06
2022-09-24T07:45:42.784Z,100301.41
2022-09-24T07:48:11.281Z,100230.25
2022-09-24T07:50:41.208Z,100311.06
2022-09-24T07:53:12.767Z,100319.28
2022-09-24T07:55:41.446Z,100302.50
2022-09-24T07:58:13.606Z,100312.66
2022-09-24T08:00:41.963Z,100318.47
2022-09-24T08:03:09.869Z,100310.25
2022-09-24T08:05:45.437Z,100283.03
2022-09-24T08:08:13.847Z,100297.53
2022-09-24T08:10:42.646Z,100326.97
2022-09-24T08:13:10.676Z,100330.84
2022-09-24T08:15:38.470Z,100333.94
2022-09-24T08:18:07.160Z,100284.84
2022-09-24T08:20:39.651Z,100259.13
2022-09-24T08:23:10.703Z,100234.69
2022-09-24T08:25:38.351Z,100342.97
2022-09-24T08:28:07.173Z,100326.50
2022-09-24T08:30:35.836Z,100350.63
2022-09-24T08:33:06.826Z,100346.91
2022-09-24T08:35:34.917Z,100285.75
2022-09-24T08:38:03.720Z,100351.56
2022-09-24T08:40:37.099Z,100362.31
2022-09-24T08:43:32.843Z,100347.63
2022-09-24T08:46:27.769Z,100348.88
2022-09-24T08:48:55.527Z,100327.78
2022-09-24T08:51:23.502Z,100306.69
2022-09-24T08:54:10.215Z,100343.22
2022-09-24T08:56:44.095Z,100351.91
2022-09-24T08:59:32.980Z,100206.16
2022-09-24T09:02:38.513Z,100348.19
2022-09-24T09:05:18.791Z,100345.09
2022-09-24T09:08:41.433Z,100351.38
2022-09-24T09:11:08.225Z,100353.31
2022-09-24T09:14:02.945Z,100352.19
2022-09-24T09:16:44.726Z,100347.22
2022-09-24T09:19:15.726Z,100330.97
2022-09-24T09:21:54.585Z,100337.84
2022-09-24T09:24:45.120Z,100355.41
2022-09-24T09:27:17.705Z,100307.97
2022-09-24T09:29:50.937Z,100249.69
2022-09-24T09:32:37.037Z,100356.69
2022-09-24T09:35:29.648Z,100334.38
2022-09-24T09:38:03.608Z,100339.56
2022-09-24T09:40:34.183Z,100328.56
2022-09-24T09:43:04.531Z,100295.13
2022-09-24T09:45:35.405Z,100338.72
2022-09-24T09:48:03.682Z,100273.78
2022-09-24T09:50:52.472Z,100359.53
2022-09-24T09:53:28.744Z,100347.47
2022-09-24T09:56:00.204Z,100370.16
2022-09-24T09:58:28.755Z,100372.47
2022-09-24T10:01:32.058Z,100359.91
2022-09-24T10:04:05.075Z,100189.63
2022-09-24T10:06:35.187Z,100372.34
2022-09-24T10:09:07.717Z,100352.00
2022-09-24T10:11:35.413Z,100299.19
2022-09-24T10:14:11.171Z,100315.75
2022-09-24T10:16:54.302Z,100349.88
2022-09-24T10:19:24.772Z,100351.81
2022-09-24T10:21:55.210Z,100311.59
2022-09-24T10:24:29.659Z,100343.25
2022-09-24T10:26:57.924Z,100321.84
2022-09-24T10:29:52.154Z,100347.63
2022-09-24T10:32:23.018Z,100313.69
2022-09-24T10:35:01.797Z,100312.38
2022-09-24T10:37:30.643Z,100342.72
2022-09-24T10:40:11.833Z,100323.25
2022-09-24T10:42:39.707Z,100300.63
2022-09-24T10:45:14.226Z,100272.28
2022-09-24T10:47:57.652Z,100316.53
2022-09-24T10:50:34.714Z,100284.16
2022-09-24T10:53:15.857Z,100309.44
2022-09-24T10:55:57.424Z,100283.50
2022-09-24T10:58:47.021Z,100288.00
2022-09-24T11:01:23.467Z,100287.47
2022-09-24T11:04:21.020Z,100278.72
2022-09-24T11:07:03.674Z,100268.53
2022-09-24T11:09:55.411Z,100262.25
2022-09-24T11:12:49.422Z,100238.41
2022-09-24T11:15:45.401Z,100254.81
2022-09-24T11:18:19.605Z,100252.56
2022-09-24T11:21:02.410Z,100244.31
2022-09-24T11:23:41.033Z,100239.63
2022-09-24T11:26:40.178Z,100234.25
2022-09-24T11:29:26.632Z,100233.09
2022-09-24T11:32:02.462Z,100230.34
2022-09-24T11:34:53.104Z,100213.59
2022-09-24T11:37:39.329Z,100138.44
2022-09-24T11:40:32.077Z,100229.69
2022-09-24T11:43:16.025Z,100237.13
2022-09-24T11:46:15.200Z,100245.84
2022-09-24T11:49:09.978Z,100249.38
2022-09-24T11:52:05.828Z,100257.72
2022-09-24T11:54:40.562Z,100261.63
2022-09-24T11:57:21.297Z,100275.81
2022-09-24T12:00:13.963Z,100261.97
2022-09-24T12:03:25.946Z,100261.63
2022-09-24T12:06:13.771Z,100218.19
2022-09-24T12:09:03.087Z,100267.38
2022-09-24T12:11:36.515Z,100269.78
2022-09-24T12:14:19.639Z,100272.22
2022-09-24T12:16:53.511Z,100218.38
2022-09-24T12:19:35.589Z,100255.72
2022-09-24T12:22:05.878Z,100220.84
2022-09-24T12:24:35.692Z,100168.75
2022-09-24T12:27:15.740Z,100222.81
2022-09-24T12:30:29.955Z,100238.66
2022-09-24T12:33:01.778Z,100236.25
2022-09-24T12:35:57.250Z,100228.03
2022-09-24T12:38:42.510Z,100173.00
2022-09-24T12:41:10.288Z,100223.31
2022-09-24T12:44:04.035Z,100164.41
2022-09-24T12:46:38.764Z,100212.78
2022-09-24T12:49:24.792Z,100172.81
2022-09-24T12:52:24.466Z,100182.78
2022-09-24T12:54:59.807Z,100177.41
2022-09-24T12:57:50.878Z,100144.72
2022-09-24T13:00:40.981Z,100190.25
2022-09-24T13:03:42.008Z,100187.97
2022-09-24T13:06:32.719Z,100189.91
2022-09-24T13:09:01.509Z,100184.41
2022-09-24T13:11:38.358Z,100167.69
2022-09-24T13:14:12.076Z,100180.84
2022-09-24T13:16:46.921Z,100122.66
2022-09-24T13:19:33.782Z,100168.25
2022-09-24T13:22:02.796Z,100155.78
2022-09-24T13:24:52.505Z,100155.31
2022-09-24T13:27:25.141Z,100158.88
2022-09-24T13:30:14.110Z,100152.13
2022-09-24T13:33:10.021Z,100128.50
2022-09-24T13:35:50.232Z,100174.69
2022-09-24T13:38:26.028Z,100145.22
2022-09-24T13:41:12.462Z,100172.41
2022-09-24T13:43:51.724Z,100168.41
2022-09-24T13:46:21.132Z,100130.00
2022-09-24T13:48:55.262Z,100167.91
2022-09-24T13:51:28.565Z,100156.47
2022-09-24T13:54:19.830Z,100154.50
2022-09-24T13:57:18.520Z,100146.97
2022-09-24T13:59:46.304Z,100139.88
2022-09-24T14:02:37.927Z,100130.25
2022-09-24T14:05:15.293Z,100124.16
2022-09-24T14:07:43.528Z,100102.03
2022-09-24T14:10:14.912Z,100122.94
2022-09-24T14:12:42.578Z,100096.00
2022-09-24T14:15:15.687Z,100120.84
2022-09-24T14:17:43.752Z,100118.34
2022-09-24T14:20:19.708Z,100105.06
2022-09-24T14:22:47.531Z,100002.97
2022-09-24T14:25:25.737Z,100107.25
2022-09-24T14:27:53.484Z,100093.63
2022-09-24T14:30:26.508Z,100105.59
2022-09-24T14:33:07.289Z,100102.88
2022-09-24T14:35:38.402Z,100106.75
2022-09-24T14:38:11.816Z,100096.56
2022-09-24T14:40:47.461Z,100061.19
2022-09-24T14:43:21.933Z,100063.59
2022-09-24T14:45:51.808Z,100069.31
2022-09-24T14:48:31.221Z,100098.50
2022-09-24T14:50:58.875Z,100036.47
2022-09-24T14:53:37.556Z,100100.47
2022-09-24T14:56:32.737Z,100103.22
2022-09-24T14:59:01.220Z,100039.09
2022-09-24T15:01:33.305Z,100063.34
2022-09-24T15:04:14.760Z,100091.88
2022-09-24T15:06:47.546Z,100098.75
2022-09-24T15:09:41.485Z,100076.16
2022-09-24T15:12:10.343Z,100079.41
2022-09-24T15:14:38.818Z,100107.34
2022-09-24T15:17:25.988Z,100091.53
2022-09-24T15:19:56.452Z,100078.59
2022-09-24T15:22:29.051Z,100109.41
2022-09-24T15:25:01.527Z,100108.25
2022-09-24T15:27:33.602Z,100104.72
2022-09-24T15:30:04.911Z,100041.81
2022-09-24T15:32:35.209Z,100050.31
2022-09-24T15:35:08.526Z,100078.84
2022-09-24T15:37:39.381Z,100057.06
2022-09-24T15:40:16.333Z,100104.25
2022-09-24T15:42:44.159Z,100092.78
2022-09-24T15:45:21.531Z,100097.97
2022-09-24T15:47:53.496Z,100075.06
2022-09-24T15:50:22.711Z,100055.34
2022-09-24T15:52:57.116Z,100093.13
2022-09-24T15:55:25.006Z,99986.16
2022-09-24T15:57:53.382Z,100091.53
2022-09-24T16:00:23.828Z,100000.22
2022-09-24T16:02:57.769Z,100079.63
2022-09-24T16:05:26.906Z,100091.88
2022-09-24T16:07:54.539Z,100066.34
2022-09-24T16:10:23.117Z,100037.94
2022-09-24T16:12:50.833Z,100023.47
2022-09-24T16:15:19.128Z,100061.75
2022-09-24T16:17:50.148Z,100070.56
2022-09-24T16:20:18.285Z,100059.25
2022-09-24T16:22:45.953Z,100047.63
2022-09-24T16:25:13.641Z,100088.34
2022-09-24T16:27:41.466Z,100032.41
2022-09-24T16:30:09.663Z,100095.78
2022-09-24T16:32:37.971Z,100084.19
2022-09-24T16:35:06.526Z,100056.16
2022-09-24T16:37:34.319Z,100050.53
2022-09-24T16:40:02.255Z,100058.75
2022-09-24T16:42:30.278Z,100025.63
2022-09-24T16:44:58.166Z,100078.81
2022-09-24T16:47:25.824Z,100059.81
2022-09-24T16:49:53.461Z,100081.44
2022-09-24T16:52:21.192Z,100078.72
2022-09-24T16:54:48.999Z,100070.69
2022-09-24T16:57:16.711Z,100066.69
2022-09-24T16:59:44.342Z,100077.91
2022-09-24T17:02:12.597Z,100061.28
2022-09-24T17:04:40.940Z,100061.53
2022-09-24T17:07:10.561Z,100051.00
2022-09-24T17:09:56.593Z,100013.19
2022-09-24T17:12:24.828Z,100070.38
2022-09-24T17:14:52.900Z,100076.16
2022-09-24T17:17:20.486Z,100079.75
2022-09-24T17:19:48.380Z,100085.56
2022-09-24T17:22:16.081Z,100086.34
2022-09-24T17:24:43.707Z,100087.41
2022-09-24T17:27:11.478Z,100062.38
2022-09-24T17:29:39.258Z,100071.47
2022-09-24T17:32:07.010Z,100084.66
2022-09-24T17:34:35.416Z,100062.44
2022-09-24T17:37:03.164Z,100046.00
2022-09-24T17:39:30.991Z,100065.81
2022-09-24T17:41:58.878Z,100094.69
2022-09-24T17:44:26.545Z,100093.56
2022-09-24T17:46:54.336Z,100051.25
2022-09-24T17:49:22.171Z,100070.50
2022-09-24T17:51:49.918Z,100095.41
2022-09-24T17:54:23.502Z,100087.56
2022-09-24T17:56:51.243Z,100095.31
2022-09-24T17:59:22.920Z,100098.75
2022-09-24T18:01:53.429Z,100088.88
2022-09-24T18:04:21.935Z,100091.88
2022-09-24T18:06:50.283Z,100107.00
2022-09-24T18:09:18.836Z,100137.75
2022-09-24T18:11:48.916Z,100130.66
2022-09-24T18:14:19.235Z,100093.56
2022-09-24T18:16:48.079Z,100142.78
2022-09-24T18:19:17.160Z,100128.75
2022-09-24T18:21:46.624Z,100135.34
2022-09-24T18:24:16.468Z,100110.44
2022-09-24T18:26:44.662Z,100137.75
2022-09-24T18:29:15.830Z,100136.94
2022-09-24T18:31:44.881Z,100093.56
2022-09-24T18:34:15.120Z,100145.28
2022-09-24T18:36:45.032Z,100155.13
2022-09-24T18:39:21.672Z,100149.13
2022-09-24T18:41:52.118Z,100040.09
2022-09-24T18:44:19.945Z,100162.13
2022-09-24T18:46:47.662Z,100124.03
2022-09-24T18:49:15.569Z,100147.50
2022-09-24T18:51:43.764Z,100172.75
2022-09-24T18:54:13.601Z,100163.72
2022-09-24T18:56:41.362Z,100158.78
2022-09-24T18:59:18.584Z,100160.63
2022-09-24T19:01:47.955Z,100136.28
2022-09-24T19:04:16.989Z,100118.97
2022-09-24T19:06:48.291Z,100153.69
2022-09-24T19:09:20.419Z,100134.53
2022-09-24T19:11:48.960Z,100174.34
2022-09-24T19:14:19.946Z,100184.44
2022-09-24T19:16:49.384Z,100121.81
2022-09-24T19:19:17.100Z,100180.56
2022-09-24T19:21:45.196Z,100142.44
2022-09-24T19:24:12.905Z,100192.38
2022-09-24T19:26:40.700Z,100197.03
2022-09-24T19:29:08.525Z,100197.88
2022-09-24T19:31:39.242Z,100200.28
2022-09-24T19:34:09.033Z,100154.38
2022-09-24T19:36:43.811Z,100210.13
2022-09-24T19:39:14.743Z,100219.84
2022-09-24T19:41:42.874Z,100222.25
2022-09-24T19:44:11.675Z,100210.19
2022-09-24T19:46:40.460Z,100199.97
2022-09-24T19:49:08.771Z,100221.75
2022-09-24T19:51:37.154Z,100224.50
2022-09-24T19:54:08.951Z,100188.91
2022-09-24T19:56:37.540Z,100210.75
2022-09-24T19:59:07.941Z,100230.84
2022-09-24T20:01:36.003Z,100231.28
2022-09-24T20:04:06.572Z,100238.03
2022-09-24T20:06:36.437Z,100219.34
2022-09-24T20:09:05.027Z,100209.25
2022-09-24T20:11:33.086Z,100222.91
2022-09-24T20:14:01.852Z,100233.50
2022-09-24T20:16:33.383Z,100209.66
2022-09-24T20:19:02.823Z,100165.91
2022-09-24T20:21:35.137Z,100169.28
2022-09-24T20:24:04.749Z,100213.13
2022-09-24T20:26:51.533Z,100212.78
2022-09-24T20:29:19.959Z,100206.03
2022-09-24T20:31:53.019Z,100196.16
2022-09-24T20:34:28.978Z,100179.31
2022-09-24T20:37:01.442Z,100131.72
2022-09-24T20:39:30.162Z,100166.50
2022-09-24T20:42:08.517Z,100163.41
2022-09-24T20:44:36.451Z,100180.34
2022-09-24T20:47:04.318Z,100178.75
2022-09-24T20:49:33.427Z,100126.34
2022-09-24T20:52:03.057Z,100163.97
2022-09-24T20:54:30.710Z,100142.78
2022-09-24T20:56:58.571Z,100096.81
2022-09-24T20:59:27.450Z,100131.44
2022-09-24T21:01:55.582Z,100138.00
2022-09-24T21:04:24.445Z,100143.13
2022-09-24T21:06:52.393Z,100069.75
2022-09-24T21:09:20.134Z,100021.44
2022-09-24T21:11:50.355Z,100131.69
2022-09-24T21:14:18.737Z,100111.34
2022-09-24T21:16:47.476Z,100159.97
2022-09-24T21:19:15.973Z,100157.22
2022-09-24T21:21:43.749Z,100090.03
2022-09-24T21:24:14.901Z,100156.72
2022-09-24T21:26:45.250Z,100158.09
2022-09-24T21:29:18.345Z,100150.03
2022-09-24T21:31:47.580Z,100176.38
2022-09-24T21:34:18.109Z,100193.94
2022-09-24T21:36:46.047Z,100164.66
2022-09-24T21:39:17.234Z,100196.56
2022-09-24T21:41:49.942Z,100143.59
2022-09-24T21:44:18.568Z,100158.28
2022-09-24T21:46:47.537Z,100152.00
2022-09-24T21:49:17.212Z,100095.22
2022-09-24T21:51:46.898Z,100165.41
2022-09-24T21:54:17.281Z,100157.97
2022-09-24T21:56:45.941Z,100156.69
2022-09-24T21:59:33.163Z,100144.72
2022-09-24T22:02:02.142Z,100195.47
2022-09-24T22:04:32.829Z,100190.94
2022-09-24T22:07:00.774Z,100177.59
2022-09-24T22:09:29.409Z,100167.31
2022-09-24T22:12:00.157Z,100212.34
2022-09-24T22:14:28.081Z,100219.53
2022-09-24T22:16:56.685Z,100181.09
2022-09-24T22:19:24.558Z,100123.97
2022-09-24T22:21:52.657Z,100191.75
2022-09-24T22:24:20.438Z,100182.44
2022-09-24T22:26:48.547Z,100146.75
2022-09-24T22:29:16.390Z,100162.69
2022-09-24T22:31:44.061Z,100219.19
2022-09-24T22:34:30.832Z,100176.50
2022-09-24T22:36:58.661Z,100208.94
2022-09-24T22:39:26.355Z,100224.53
2022-09-24T22:41:54.275Z,100186.66
2022-09-24T22:44:22.040Z,100178.56
2022-09-24T22:46:49.773Z,100124.44
2022-09-24T22:49:17.367Z,100119.31
2022-09-24T22:51:45.315Z,100104.53
2022-09-24T22:54:13.119Z,100118.06
2022-09-24T22:56:41.054Z,100140.81
2022-09-24T22:59:08.731Z,100128.00
2022-09-24T23:01:42.685Z,100102.66
2022-09-24T23:04:15.237Z,100131.63
2022-09-24T23:06:44.153Z,100156.88
2022-09-24T23:09:11.905Z,100193.16
2022-09-24T23:11:40.036Z,100205.81
2022-09-24T23:14:12.702Z,100126.16
2022-09-24T23:16:43.061Z,100190.94
2022-09-24T23:19:17.720Z,100225.81
2022-09-24T23:21:46.203Z,100213.31
2022-09-24T23:24:19.638Z,100172.03
2022-09-24T23:26:47.780Z,100234.72
2022-09-24T23:29:15.777Z,100213.94
2022-09-24T23:31:43.448Z,100222.81
2022-09-24T23:34:13.204Z,100218.44
2022-09-24T23:36:41.728Z,100220.84
2022-09-24T23:39:09.531Z,100175.91
2022-09-24T23:41:37.314Z,100203.72
2022-09-24T23:44:05.423Z,100228.81
2022-09-24T23:46:34.024Z,100207.94
2022-09-24T23:49:02.760Z,100207.88
2022-09-24T23:51:30.551Z,100101.59
2022-09-24T23:53:58.152Z,100199.66
2022-09-24T23:56:26.038Z,100202.66
2022-09-24T23:58:55.117Z,100146.53
